Time;durP1;ratioP1;P1;durP2;ratioP2;P2;SDS_P1;SDS_P2;PMS_P1;PMS_P2;Temp;Humidity;BMP_temperature;BMP_pressure;BME280_temperature;BME280_humidity;BME280_pressure;Samples;Min_cycle;Max_cycle;Signal;HPM_P1;HPM_P2
2023/12/08 00:00:09;;;;;;;12.60;8.68;;;;;;;19.60;40.35;101457.91;4630664;31;20051;-49
2023/12/08 00:02:38;;;;;;;11.90;8.98;;;;;;;19.61;40.27;101478.44;4627253;31;20492;-56
2023/12/08 00:05:06;;;;;;;11.18;8.30;;;;;;;19.60;40.21;101487.44;4630369;31;20074;-57
2023/12/08 00:07:34;;;;;;;10.85;8.07;;;;;;;19.60;40.19;101477.56;4631552;30;20408;-54
2023/12/08 00:10:02;;;;;;;8.80;7.43;;;;;;;19.60;40.11;101479.38;4630402;31;20063;-51
2023/12/08 00:12:30;;;;;;;11.10;8.68;;;;;;;19.60;40.14;101482.06;4623956;31;20052;-53
2023/12/08 00:14:57;;;;;;;11.55;8.38;;;;;;;19.58;40.21;101474.16;4618759;31;20108;-54
2023/12/08 00:17:27;;;;;;;9.68;8.68;;;;;;;19.55;40.02;101469.00;4626292;31;20063;-56
2023/12/08 00:19:55;;;;;;;9.25;8.25;;;;;;;19.51;40.15;101472.91;4628043;31;20412;-52
2023/12/08 00:22:22;;;;;;;9.43;7.68;;;;;;;19.49;40.28;101461.44;4630400;31;20401;-54
2023/12/08 00:24:50;;;;;;;12.30;9.05;;;;;;;19.45;40.22;101452.75;4630112;31;20059;-59
2023/12/08 00:27:17;;;;;;;9.07;7.75;;;;;;;19.44;40.42;101450.16;4629883;31;20059;-49
2023/12/08 00:29:45;;;;;;;9.32;7.55;;;;;;;19.43;40.27;101448.47;4628816;30;20070;-50
2023/12/08 00:32:12;;;;;;;8.65;7.82;;;;;;;19.39;40.04;101439.78;4627625;31;20078;-54
2023/12/08 00:34:40;;;;;;;8.75;7.40;;;;;;;19.38;40.10;101438.06;4630069;31;20062;-50
2023/12/08 00:37:08;;;;;;;9.02;7.85;;;;;;;19.34;40.04;101433.91;4630039;31;20051;-51
2023/12/08 00:39:35;;;;;;;9.82;8.80;;;;;;;19.33;40.21;101426.84;4629870;31;20055;-53
2023/12/08 00:42:03;;;;;;;8.80;7.90;;;;;;;19.31;40.39;101418.03;4627690;31;20511;-52
2023/12/08 00:44:30;;;;;;;10.00;7.90;;;;;;;19.30;40.41;101418.16;4630411;31;20066;-52
2023/12/08 00:46:57;;;;;;;10.95;8.45;;;;;;;19.27;40.26;101406.66;4630628;31;20401;-51
2023/12/08 00:49:25;;;;;;;10.20;8.10;;;;;;;19.25;40.27;101399.72;4620797;31;20524;-51
2023/12/08 00:51:52;;;;;;;8.82;7.93;;;;;;;19.25;40.10;101397.91;4629875;31;20059;-51
2023/12/08 00:54:19;;;;;;;10.48;8.23;;;;;;;19.24;40.25;101398.88;4629767;31;20055;-50
2023/12/08 00:56:47;;;;;;;9.35;7.45;;;;;;;19.24;40.18;101411.41;4642344;30;20421;-56
2023/12/08 00:59:14;;;;;;;9.63;7.47;;;;;;;19.23;40.40;101412.41;4629675;31;20074;-55
2023/12/08 01:01:42;;;;;;;9.15;7.15;;;;;;;19.22;40.19;101418.75;4627422;31;20067;-57
2023/12/08 01:04:09;;;;;;;8.93;7.78;;;;;;;19.23;40.23;101425.81;4629904;31;20051;-57
2023/12/08 01:06:36;;;;;;;7.53;6.65;;;;;;;19.21;40.12;101428.63;4629796;31;20066;-50
2023/12/08 01:09:04;;;;;;;8.75;7.25;;;;;;;19.22;40.30;101426.81;4629668;31;20070;-48
2023/12/08 01:11:32;;;;;;;8.15;7.30;;;;;;;19.20;40.12;101428.72;4626712;31;20067;-54
2023/12/08 01:13:59;;;;;;;8.75;7.35;;;;;;;19.19;40.17;101430.56;4629853;31;20054;-53
2023/12/08 01:16:27;;;;;;;8.82;7.50;;;;;;;19.19;40.14;101421.66;4629692;31;20055;-57
2023/12/08 01:18:54;;;;;;;8.38;7.38;;;;;;;19.19;40.00;101424.34;4629498;31;20071;-58
2023/12/08 01:21:22;;;;;;;10.05;8.15;;;;;;;19.18;39.97;101423.50;4626854;31;20055;-58
2023/12/08 01:23:49;;;;;;;7.82;6.70;;;;;;;19.19;40.25;101433.25;4629410;31;20051;-57
2023/12/08 01:26:16;;;;;;;9.57;7.72;;;;;;;19.16;40.24;101433.50;4629421;31;20062;-57
2023/12/08 01:28:44;;;;;;;8.85;7.75;;;;;;;19.18;40.08;101436.06;4629277;31;20058;-57
2023/12/08 01:31:12;;;;;;;8.50;6.30;;;;;;;19.17;40.12;101435.22;4627458;31;20056;-57
2023/12/08 01:33:39;;;;;;;9.27;7.55;;;;;;;19.16;40.25;101433.50;4629292;31;20052;-58
2023/12/08 01:36:07;;;;;;;8.07;6.78;;;;;;;19.16;40.10;101430.81;4629298;31;20519;-50
2023/12/08 01:38:54;;;;;;;8.02;7.22;;;;;;;19.15;40.08;101431.75;4625654;31;20068;-52
2023/12/08 01:41:22;;;;;;;9.55;7.10;;;;;;;19.14;40.04;101424.69;4629197;31;20055;-52
2023/12/08 01:43:49;;;;;;;9.88;7.47;;;;;;;19.15;40.08;101421.03;4629293;31;20047;-50
2023/12/08 01:46:21;;;;;;;7.15;6.22;;;;;;;19.15;40.10;101417.50;4629714;31;20055;-52
2023/12/08 01:48:50;;;;;;;9.57;6.80;;;;;;;19.14;40.00;101408.59;4626213;31;20064;-49
2023/12/08 01:51:19;;;;;;;7.47;6.38;;;;;;;19.13;40.06;101414.94;4628930;31;20059;-49
2023/12/08 01:53:47;;;;;;;9.18;7.22;;;;;;;19.13;40.07;101398.84;4628783;31;20492;-51
2023/12/08 01:56:14;;;;;;;8.38;7.32;;;;;;;19.12;39.92;101394.44;4628837;31;20055;-55
2023/12/08 01:58:44;;;;;;;7.85;6.32;;;;;;;19.11;40.17;101384.66;4626311;31;20504;-57
2023/12/08 02:01:11;;;;;;;8.10;7.25;;;;;;;19.12;40.04;101380.16;4628913;31;20059;-50
2023/12/08 02:03:40;;;;;;;7.85;6.63;;;;;;;19.11;39.96;101373.94;4624218;31;20056;-52
2023/12/08 02:06:08;;;;;;;6.53;5.60;;;;;;;19.11;40.00;101362.34;4628461;31;20150;-52
2023/12/08 02:08:35;;;;;;;7.45;6.47;;;;;;;19.10;39.98;101350.75;4639239;30;20085;-50
2023/12/08 02:11:03;;;;;;;7.63;6.85;;;;;;;19.10;40.11;101345.38;4629201;31;20378;-52
2023/12/08 02:13:31;;;;;;;7.10;6.40;;;;;;;19.10;40.08;101348.06;4628868;31;20055;-49
2023/12/08 02:16:09;;;;;;;9.05;6.85;;;;;;;19.10;40.10;101341.84;4628447;31;20059;-58
2023/12/08 02:18:38;;;;;;;7.20;6.40;;;;;;;19.08;40.02;101323.19;4628077;31;20063;-57
2023/12/08 02:21:08;;;;;;;8.43;6.25;;;;;;;19.08;39.99;101323.19;4641297;30;20420;-58
2023/12/08 02:23:36;;;;;;;7.88;6.38;;;;;;;19.07;39.84;101318.78;4628914;31;20055;-57
2023/12/08 02:26:05;;;;;;;7.80;6.65;;;;;;;19.08;39.94;101298.16;4626542;31;20068;-54
2023/12/08 02:28:32;;;;;;;8.50;6.57;;;;;;;19.09;39.96;101300.75;4628511;31;20495;-51
2023/12/08 02:31:02;;;;;;;7.38;6.40;;;;;;;19.10;40.12;101291.72;4629041;31;20389;-52
2023/12/08 02:33:32;;;;;;;7.95;6.50;;;;;;;19.09;40.02;101290.00;4632142;31;20125;-53
2023/12/08 02:36:02;;;;;;;7.65;6.82;;;;;;;19.09;40.12;101287.31;4627384;31;20064;-54
2023/12/08 02:38:31;;;;;;;6.88;6.15;;;;;;;19.09;40.13;101284.66;4631781;31;20059;-51
2023/12/08 02:40:59;;;;;;;6.97;5.85;;;;;;;19.09;40.11;101289.16;4631140;31;20055;-50
2023/12/08 02:43:27;;;;;;;6.65;5.55;;;;;;;19.09;40.22;101300.75;4630904;31;20055;-51
2023/12/08 02:45:54;;;;;;;7.85;5.88;;;;;;;19.09;40.14;101299.91;4628675;31;20062;-57
2023/12/08 02:48:22;;;;;;;7.13;6.38;;;;;;;19.08;40.23;101293.69;4630934;31;20059;-58
2023/12/08 02:50:49;;;;;;;6.82;6.13;;;;;;;19.08;40.23;101304.41;4643825;30;20055;-58
2023/12/08 02:53:17;;;;;;;7.20;6.20;;;;;;;19.08;40.14;101314.25;4630670;31;20054;-58
2023/12/08 02:55:45;;;;;;;7.07;5.40;;;;;;;19.07;40.11;101323.28;4641031;30;20073;-53
2023/12/08 02:58:12;;;;;;;8.55;6.43;;;;;;;19.05;40.02;101315.38;4630927;31;20066;-53
2023/12/08 03:00:39;;;;;;;6.38;5.53;;;;;;;19.05;39.93;101303.78;4630837;31;20078;-54
2023/12/08 03:03:07;;;;;;;7.63;5.45;;;;;;;19.06;40.06;101316.22;4630574;31;20062;-58
2023/12/08 03:05:35;;;;;;;6.20;5.20;;;;;;;19.04;40.07;101316.34;4628150;31;20059;-57
2023/12/08 03:08:03;;;;;;;8.40;5.88;;;;;;;19.03;40.14;101307.41;4630656;31;20064;-49
2023/12/08 03:10:30;;;;;;;6.38;5.05;;;;;;;19.04;40.18;101305.63;4630808;31;20055;-50
2023/12/08 03:12:59;;;;;;;6.32;5.30;;;;;;;19.05;39.97;101298.41;4630146;31;20416;-54
2023/12/08 03:15:27;;;;;;;6.88;5.28;;;;;;;19.02;40.15;101295.00;4628052;31;20508;-51
2023/12/08 03:17:54;;;;;;;7.18;5.63;;;;;;;19.03;39.95;101296.69;4630877;31;20055;-58
2023/12/08 03:20:21;;;;;;;6.32;5.50;;;;;;;19.02;40.21;101291.44;4627403;31;20055;-59
2023/12/08 03:22:49;;;;;;;7.38;5.55;;;;;;;19.02;40.15;101280.72;4642658;30;20519;-58
2023/12/08 03:25:16;;;;;;;6.20;5.22;;;;;;;19.02;40.05;101280.72;4628155;31;20486;-58
2023/12/08 03:27:44;;;;;;;6.78;5.40;;;;;;;19.02;40.36;101278.88;4630576;31;20519;-59
2023/12/08 03:30:12;;;;;;;8.00;5.47;;;;;;;19.01;40.21;101279.88;4630401;31;20509;-56
2023/12/08 03:32:40;;;;;;;7.78;5.90;;;;;;;19.01;40.24;101282.56;4629739;31;20055;-56
2023/12/08 03:35:07;;;;;;;6.78;5.20;;;;;;;19.00;40.08;101283.53;4628003;31;20412;-56
2023/12/08 03:37:35;;;;;;;6.40;5.47;;;;;;;19.00;40.16;101280.84;4593991;31;1134565;-56
2023/12/08 03:40:02;;;;;;;6.75;5.60;;;;;;;18.99;40.10;101276.44;4631560;31;20504;-56
2023/12/08 03:42:35;;;;;;;5.90;5.28;;;;;;;18.99;40.23;101272.91;4631032;31;20051;-56
2023/12/08 03:45:04;;;;;;;6.10;5.05;;;;;;;18.99;40.30;101284.47;4629613;31;20048;-56
2023/12/08 03:47:31;;;;;;;7.03;5.38;;;;;;;18.99;40.22;101283.63;4631625;31;20067;-52
2023/12/08 03:49:59;;;;;;;6.05;4.93;;;;;;;18.98;40.30;101282.78;4630971;31;20055;-51
2023/12/08 03:52:27;;;;;;;5.63;5.03;;;;;;;18.98;40.34;101282.78;4629778;31;20400;-50
2023/12/08 03:54:54;;;;;;;6.63;5.40;;;;;;;18.98;40.32;101274.72;4629666;31;20507;-52
2023/12/08 03:57:21;;;;;;;5.93;5.18;;;;;;;18.97;40.28;101275.72;4631433;31;20059;-52
2023/12/08 03:59:49;;;;;;;7.10;5.53;;;;;;;18.96;40.21;101265.97;4631091;31;20059;-52
2023/12/08 04:02:17;;;;;;;6.07;5.13;;;;;;;18.95;40.14;101261.53;4629899;31;20512;-52
2023/12/08 04:04:44;;;;;;;6.95;5.32;;;;;;;18.95;40.15;101255.34;4625400;31;20056;-52
2023/12/08 04:07:11;;;;;;;5.78;5.00;;;;;;;18.96;40.16;101260.59;4630860;31;20407;-59
2023/12/08 04:09:39;;;;;;;7.53;6.00;;;;;;;18.97;40.34;101261.44;4630791;31;20500;-58
2023/12/08 04:12:06;;;;;;;6.57;5.00;;;;;;;18.97;40.38;101262.31;4629693;31;20055;-58
2023/12/08 04:14:33;;;;;;;6.43;5.10;;;;;;;18.97;40.20;101264.13;4629194;31;20416;-59
2023/12/08 04:17:01;;;;;;;5.47;4.85;;;;;;;18.96;40.26;101267.78;4630916;31;20066;-54
2023/12/08 04:19:29;;;;;;;6.45;5.20;;;;;;;18.95;40.29;101261.53;4630735;31;20063;-52
2023/12/08 04:21:56;;;;;;;6.57;5.05;;;;;;;18.97;40.24;101256.09;4629549;31;20066;-54
2023/12/08 04:24:24;;;;;;;5.88;5.22;;;;;;;18.97;40.22;101250.72;4629138;31;20048;-54
2023/12/08 04:26:51;;;;;;;5.70;5.03;;;;;;;18.97;40.51;101253.41;4630602;31;20361;-51
2023/12/08 04:29:18;;;;;;;5.93;5.05;;;;;;;18.97;40.35;101246.19;4630474;31;20066;-50
2023/12/08 04:31:46;;;;;;;6.43;5.18;;;;;;;18.97;40.44;101245.34;4629855;31;20063;-53
2023/12/08 04:34:13;;;;;;;5.95;4.72;;;;;;;18.97;40.56;101239.97;4627174;31;20420;-53
2023/12/08 04:36:40;;;;;;;7.60;5.40;;;;;;;18.97;40.46;101238.16;4630586;31;20496;-53
2023/12/08 04:39:08;;;;;;;7.70;5.38;;;;;;;18.97;40.41;101248.03;4630016;31;20450;-53
2023/12/08 04:41:36;;;;;;;5.38;4.88;;;;;;;18.96;40.63;101244.50;4628860;31;20063;-54
2023/12/08 04:44:03;;;;;;;7.78;5.70;;;;;;;18.95;40.35;101240.09;4628492;31;20051;-51
2023/12/08 04:46:31;;;;;;;6.75;5.05;;;;;;;18.95;40.58;101245.44;4630367;31;20059;-58
2023/12/08 04:48:58;;;;;;;6.28;5.53;;;;;;;18.96;40.71;101244.50;4630043;31;20059;-58
2023/12/08 04:51:26;;;;;;;5.57;4.78;;;;;;;18.97;40.62;101242.66;4628950;31;20404;-59
2023/12/08 04:53:58;;;;;;;4.88;4.38;;;;;;;18.96;40.78;101241.81;4628688;31;20095;-58
2023/12/08 04:56:25;;;;;;;6.35;4.97;;;;;;;18.97;40.73;101234.63;4629820;31;20072;-53
2023/12/08 04:58:52;;;;;;;5.95;5.00;;;;;;;18.97;40.82;101240.84;4630037;31;20488;-52
2023/12/08 05:01:20;;;;;;;6.40;5.30;;;;;;;18.96;40.73;101232.91;4640590;30;20066;-53
2023/12/08 05:03:47;;;;;;;6.15;4.78;;;;;;;18.96;40.66;101238.28;4628749;31;20075;-55
2023/12/08 05:06:15;;;;;;;6.03;5.13;;;;;;;18.95;40.74;101242.75;4629499;31;20052;-55
2023/12/08 05:08:43;;;;;;;6.00;4.78;;;;;;;18.94;40.88;101238.38;4629834;31;20423;-52
2023/12/08 05:11:10;;;;;;;5.50;4.70;;;;;;;18.94;40.66;101242.91;4627810;31;20059;-52
2023/12/08 05:13:38;;;;;;;5.57;4.57;;;;;;;18.94;40.78;101240.22;4628927;31;20067;-51
2023/12/08 05:16:06;;;;;;;5.95;5.05;;;;;;;18.93;40.71;101241.19;4630107;31;20082;-54
2023/12/08 05:18:33;;;;;;;5.63;5.03;;;;;;;18.92;40.72;101237.66;4630018;31;20059;-51
2023/12/08 05:21:00;;;;;;;7.28;5.13;;;;;;;18.92;40.73;101234.09;4627905;31;20051;-51
2023/12/08 05:23:28;;;;;;;4.97;4.18;;;;;;;18.92;40.57;101229.63;4628741;31;20085;-50
2023/12/08 05:25:56;;;;;;;6.22;4.45;;;;;;;18.93;40.65;101227.78;4629753;31;20055;-52
2023/12/08 05:28:23;;;;;;;6.78;4.40;;;;;;;18.92;40.70;101232.28;4629569;31;20396;-52
2023/12/08 05:30:53;;;;;;;4.72;4.00;;;;;;;18.91;40.58;101229.72;4627516;31;20059;-49
2023/12/08 05:33:20;;;;;;;5.97;4.85;;;;;;;18.89;40.68;101220.94;4628602;31;20400;-49
2023/12/08 05:35:48;;;;;;;6.05;5.07;;;;;;;18.90;40.62;101230.69;4629251;31;20085;-51
2023/12/08 05:38:15;;;;;;;5.68;4.65;;;;;;;18.89;40.49;101231.69;4629218;31;20067;-53
2023/12/08 05:40:43;;;;;;;6.28;4.50;;;;;;;18.89;40.57;101232.53;4627368;31;20063;-52
2023/12/08 05:43:10;;;;;;;6.00;5.18;;;;;;;18.89;40.59;101237.03;4628814;31;20078;-54
2023/12/08 05:45:38;;;;;;;6.38;5.32;;;;;;;18.88;40.55;101232.63;4629301;30;20055;-57
2023/12/08 05:48:05;;;;;;;6.40;4.82;;;;;;;18.88;40.51;101233.50;4627891;31;20079;-50
2023/12/08 05:50:33;;;;;;;5.82;5.00;;;;;;;18.88;40.53;101232.63;4628758;31;20051;-53
2023/12/08 05:53:00;;;;;;;6.53;4.72;;;;;;;18.88;40.53;101233.50;4628418;31;20055;-55
2023/12/08 05:55:27;;;;;;;5.38;4.57;;;;;;;18.87;40.50;101226.41;4629450;31;20058;-51
2023/12/08 05:57:55;;;;;;;5.45;4.18;;;;;;;18.88;40.46;101225.47;4629299;31;20151;-53
2023/12/08 06:00:22;;;;;;;5.97;4.70;;;;;;;18.89;40.54;101229.00;4627345;31;20058;-53
2023/12/08 06:02:50;;;;;;;5.88;5.00;;;;;;;18.88;40.40;101224.56;4628307;31;20051;-54
2023/12/08 06:05:18;;;;;;;5.95;4.82;;;;;;;18.89;40.61;101215.59;4628795;31;20078;-53
2023/12/08 06:07:45;;;;;;;7.43;4.43;;;;;;;18.89;40.58;101223.63;4628879;31;20070;-58
2023/12/08 06:10:13;;;;;;;6.68;4.80;;;;;;;18.89;40.60;101216.44;4627468;31;20051;-58
2023/12/08 06:12:41;;;;;;;6.38;4.90;;;;;;;18.89;40.65;101223.63;4628690;31;20078;-58
2023/12/08 06:15:10;;;;;;;5.63;4.80;;;;;;;18.89;40.63;101220.94;4629048;31;20047;-58
2023/12/08 06:17:38;;;;;;;6.35;4.95;;;;;;;18.88;40.48;101219.22;4628941;31;20389;-58
2023/12/08 06:20:08;;;;;;;5.93;4.60;;;;;;;18.88;40.51;101216.53;4626479;31;20052;-58
2023/12/08 06:22:37;;;;;;;5.90;5.00;;;;;;;18.88;40.60;101213.84;4628804;31;20056;-58
2023/12/08 06:25:04;;;;;;;8.25;5.00;;;;;;;18.87;40.74;101212.16;4628570;31;20059;-58
2023/12/08 06:27:35;;;;;;;7.10;5.13;;;;;;;18.87;40.35;101202.25;4627734;31;20512;-51
2023/12/08 06:30:03;;;;;;;5.88;4.97;;;;;;;18.86;40.46;101202.41;4625853;31;20392;-50
2023/12/08 06:32:31;;;;;;;5.95;4.80;;;;;;;18.86;40.55;101200.56;4628466;30;20074;-50
2023/12/08 06:34:58;;;;;;;5.28;4.53;;;;;;;18.86;40.46;101197.03;4628648;31;20052;-54
2023/12/08 06:37:26;;;;;;;5.88;4.45;;;;;;;18.85;40.55;101201.56;4628960;31;20066;-51
2023/12/08 06:39:54;;;;;;;7.55;5.22;;;;;;;18.85;40.53;101198.03;4629365;31;20427;-50
2023/12/08 06:42:22;;;;;;;5.68;4.45;;;;;;;18.85;40.54;101196.19;4628882;31;20055;-51
2023/12/08 06:44:49;;;;;;;5.50;4.68;;;;;;;18.84;40.57;101193.59;4628748;31;20066;-52
2023/12/08 06:47:17;;;;;;;6.65;4.80;;;;;;;18.84;40.32;101197.16;4628687;31;20082;-56
2023/12/08 06:49:44;;;;;;;6.35;4.55;;;;;;;18.84;40.46;101209.69;4623077;31;20062;-55
2023/12/08 06:52:12;;;;;;;4.65;3.95;;;;;;;18.84;40.50;101207.00;4628152;31;20055;-58
2023/12/08 06:54:39;;;;;;;5.40;4.78;;;;;;;18.83;40.62;101194.59;4628207;31;20059;-59
2023/12/08 06:57:08;;;;;;;5.97;5.22;;;;;;;18.84;40.48;101193.59;4628389;31;20052;-51
2023/12/08 06:59:35;;;;;;;5.72;4.40;;;;;;;18.83;40.50;101191.91;4623258;31;20396;-54
2023/12/08 07:02:03;;;;;;;5.32;4.70;;;;;;;18.83;40.60;101191.91;4628483;31;20112;-52
2023/12/08 07:04:30;;;;;;;6.60;4.43;;;;;;;18.83;40.58;101191.91;4630120;31;20059;-51
2023/12/08 07:06:58;;;;;;;5.53;4.10;;;;;;;18.82;40.74;101195.56;4628478;31;20048;-52
2023/12/08 07:09:26;;;;;;;6.15;4.68;;;;;;;18.82;40.60;101198.25;4625981;31;20055;-52
2023/12/08 07:11:54;;;;;;;6.18;4.68;;;;;;;18.81;40.50;101197.41;4628382;31;20063;-53
2023/12/08 07:14:25;;;;;;;5.30;4.38;;;;;;;18.80;40.37;101203.75;4628541;31;20073;-58
2023/12/08 07:16:52;;;;;;;5.63;4.47;;;;;;;18.80;40.12;101209.09;4627997;31;20059;-50
2023/12/08 07:19:20;;;;;;;5.65;4.40;;;;;;;18.80;40.18;101203.75;4628649;31;20056;-51
2023/12/08 07:21:47;;;;;;;6.85;4.55;;;;;;;18.80;40.35;101192.13;4631594;31;20063;-51
2023/12/08 07:24:16;;;;;;;7.00;4.32;;;;;;;18.81;40.33;101209.97;4631598;31;20055;-54
2023/12/08 07:26:44;;;;;;;5.75;4.60;;;;;;;18.80;40.18;101209.09;4630704;31;20056;-54
2023/12/08 07:29:11;;;;;;;5.68;5.03;;;;;;;18.80;40.18;101206.44;4629385;31;20059;-49
2023/12/08 07:31:38;;;;;;;6.03;4.70;;;;;;;18.79;40.05;101218.09;4631512;31;20066;-50
2023/12/08 07:34:06;;;;;;;5.38;4.38;;;;;;;18.79;40.12;101210.06;4631289;31;20078;-52
2023/12/08 07:36:33;;;;;;;5.80;4.60;;;;;;;18.78;39.97;101221.78;4630757;31;20051;-56
2023/12/08 07:39:00;;;;;;;5.60;4.50;;;;;;;18.78;39.97;101219.94;4628947;31;20063;-57
2023/12/08 07:41:28;;;;;;;7.03;4.45;;;;;;;18.78;40.12;101222.63;4631076;31;20542;-56
2023/12/08 07:43:56;;;;;;;6.03;4.55;;;;;;;18.80;40.12;101227.00;4631346;31;20060;-59
2023/12/08 07:46:27;;;;;;;5.03;4.47;;;;;;;18.78;40.09;101222.63;4630217;31;20059;-51
2023/12/08 07:48:55;;;;;;;6.60;4.78;;;;;;;18.79;40.41;101228.84;4641503;30;20059;-49
2023/12/08 07:51:22;;;;;;;4.72;4.03;;;;;;;18.79;40.01;101239.56;4630609;30;20059;-49
2023/12/08 07:53:50;;;;;;;6.35;4.68;;;;;;;18.77;40.21;101245.06;4630721;31;20052;-50
2023/12/08 07:56:17;;;;;;;5.32;4.07;;;;;;;18.77;40.20;101242.38;4629614;31;20052;-52
2023/12/08 07:58:44;;;;;;;6.00;5.00;;;;;;;18.78;40.14;101248.59;4629037;31;20051;-57
2023/12/08 08:01:12;;;;;;;5.93;4.38;;;;;;;18.78;40.14;101245.91;4630813;31;20052;-58
2023/12/08 08:03:40;;;;;;;5.40;4.18;;;;;;;18.78;40.23;101257.50;4643335;30;20059;-58
2023/12/08 08:06:07;;;;;;;6.13;4.65;;;;;;;18.78;40.36;101252.13;4629351;31;20059;-56
2023/12/08 08:08:35;;;;;;;5.13;4.10;;;;;;;18.77;40.39;101257.63;4628864;31;20066;-57
2023/12/08 08:11:03;;;;;;;5.85;4.15;;;;;;;18.77;40.40;101261.16;4631052;31;20552;-53
2023/12/08 08:13:31;;;;;;;6.40;4.22;;;;;;;18.77;40.51;101274.56;4630638;31;20055;-51
2023/12/08 08:15:59;;;;;;;5.22;4.25;;;;;;;18.77;40.40;101269.19;4629229;31;20051;-52
2023/12/08 08:18:28;;;;;;;6.10;4.28;;;;;;;18.76;40.47;101272.88;4628789;31;20059;-51
2023/12/08 08:20:56;;;;;;;6.07;4.35;;;;;;;18.76;40.59;101275.53;4643431;30;20062;-53
2023/12/08 08:23:24;;;;;;;6.35;5.05;;;;;;;18.77;40.58;101273.72;4630603;31;20063;-53
2023/12/08 08:25:51;;;;;;;5.80;4.40;;;;;;;18.76;40.48;101283.59;4628797;31;20059;-52
2023/12/08 08:28:21;;;;;;;4.80;4.07;;;;;;;18.76;40.48;101288.94;4629378;31;20067;-57
2023/12/08 08:30:48;;;;;;;5.63;4.80;;;;;;;18.77;40.59;101289.81;4629200;31;20134;-58
2023/12/08 08:33:15;;;;;;;4.28;3.88;;;;;;;18.77;40.49;101289.81;4630431;31;20059;-58
2023/12/08 08:35:43;;;;;;;6.43;4.85;;;;;;;18.75;40.55;101297.94;4629110;31;20055;-51
2023/12/08 08:38:11;;;;;;;4.93;4.13;;;;;;;18.76;40.49;101293.47;4629216;31;20074;-53
2023/12/08 08:40:38;;;;;;;5.22;4.50;;;;;;;18.75;40.45;101289.06;4630471;31;20062;-54
2023/12/08 08:43:06;;;;;;;5.43;4.82;;;;;;;18.75;40.55;101289.91;4630116;31;20051;-53
2023/12/08 08:45:33;;;;;;;6.55;4.90;;;;;;;18.76;40.40;101288.09;4628279;31;20427;-54
2023/12/08 08:48:01;;;;;;;5.63;4.38;;;;;;;18.76;40.54;101285.41;4629197;31;20086;-51
2023/12/08 08:50:29;;;;;;;6.68;4.75;;;;;;;18.74;40.56;101290.88;4630376;31;20071;-53
2023/12/08 08:53:07;;;;;;;5.32;4.53;;;;;;;18.74;40.56;101285.53;4630089;31;20058;-53
2023/12/08 08:55:34;;;;;;;5.25;4.38;;;;;;;18.74;40.60;101285.53;4626916;31;20526;-55
2023/12/08 08:58:02;;;;;;;5.05;4.28;;;;;;;18.74;40.41;101290.88;4629978;31;20056;-51
2023/12/08 09:00:30;;;;;;;6.47;5.03;;;;;;;18.75;40.59;101291.72;4630240;31;20420;-50
2023/12/08 09:02:58;;;;;;;5.40;4.30;;;;;;;18.75;40.65;101295.25;4629959;31;20059;-50
2023/12/08 09:05:25;;;;;;;5.68;4.60;;;;;;;18.73;40.40;101289.19;4626783;31;20083;-49
2023/12/08 09:07:54;;;;;;;6.32;4.20;;;;;;;18.74;40.31;101292.72;4629766;31;20067;-56
2023/12/08 09:10:21;;;;;;;5.30;4.38;;;;;;;18.73;40.24;101294.53;4629837;31;20504;-58
2023/12/08 09:12:49;;;;;;;5.40;4.38;;;;;;;18.73;40.30;101297.22;4629795;31;20055;-57
2023/12/08 09:15:16;;;;;;;6.88;5.40;;;;;;;18.74;40.40;101296.25;4629669;31;20060;-58
2023/12/08 09:17:43;;;;;;;6.03;4.38;;;;;;;18.74;40.35;101296.25;4629435;31;20059;-57
2023/12/08 09:20:14;;;;;;;5.85;4.45;;;;;;;18.77;40.91;101295.16;4629368;31;20060;-55
2023/12/08 09:22:42;;;;;;;5.40;4.65;;;;;;;18.77;41.10;101285.28;4618517;31;20056;-50
2023/12/08 09:25:09;;;;;;;5.97;4.60;;;;;;;18.77;40.80;101290.66;4620899;30;20060;-49
2023/12/08 09:27:37;;;;;;;6.57;5.22;;;;;;;18.74;40.13;101290.88;4618404;31;20054;-52
2023/12/08 09:30:05;;;;;;;6.97;5.60;;;;;;;18.74;40.43;101298.94;4625455;31;20063;-50
2023/12/08 09:32:33;;;;;;;8.80;6.00;;;;;;;18.74;39.52;101296.25;4612052;31;20053;-49
2023/12/08 09:35:00;;;;;;;7.72;5.32;;;;;;;18.72;39.05;101292.00;4606652;31;20063;-50
2023/12/08 09:37:27;;;;;;;6.22;5.57;;;;;;;18.70;39.26;101292.09;4617786;31;20047;-50
2023/12/08 09:40:08;;;;;;;6.78;5.72;;;;;;;18.71;39.37;101288.44;4618205;31;20489;-49
2023/12/08 09:42:42;;;;;;;6.05;5.25;;;;;;;18.73;39.88;101294.53;4619637;31;20063;-50
2023/12/08 09:45:10;;;;;;;5.70;4.88;;;;;;;18.75;40.30;101294.41;4618043;31;20063;-50
2023/12/08 09:47:40;;;;;;;6.20;4.93;;;;;;;18.76;40.42;101285.41;4610704;31;20516;-53
2023/12/08 09:50:09;;;;;;;6.10;5.13;;;;;;;18.77;40.46;101285.28;4618103;31;20492;-51
2023/12/08 09:52:38;;;;;;;6.55;4.72;;;;;;;18.78;40.60;101284.31;4617945;31;20066;-49
2023/12/08 09:55:06;;;;;;;6.38;5.07;;;;;;;18.77;40.27;101279.94;4617874;31;20055;-48
2023/12/08 09:57:34;;;;;;;8.15;5.38;;;;;;;18.78;40.08;101270.91;4618067;31;20051;-54
2023/12/08 10:00:11;;;;;;;6.90;4.68;;;;;;;18.80;40.37;101273.47;4617767;31;20056;-52
2023/12/08 10:02:43;;;;;;;6.15;5.55;;;;;;;18.80;40.19;101268.13;4619788;31;20084;-51
2023/12/08 10:05:10;;;;;;;5.95;4.95;;;;;;;18.83;40.74;101267.00;4617668;31;20067;-54
2023/12/08 10:07:46;;;;;;;7.22;5.43;;;;;;;18.83;40.21;101258.97;4617991;31;20056;-53
2023/12/08 10:10:13;;;;;;;7.40;6.47;;;;;;;18.81;39.73;101260.94;4620141;31;20076;-52
2023/12/08 10:12:42;;;;;;;10.30;6.65;;;;;;;18.77;39.42;101247.75;4617469;31;20066;-56
2023/12/08 10:15:11;;;;;;;8.07;6.45;;;;;;;18.77;39.35;101249.56;4610747;31;20496;-55
2023/12/08 10:17:47;;;;;;;7.68;6.65;;;;;;;18.73;39.30;101245.41;4619911;31;20052;-58
2023/12/08 10:20:19;;;;;;;8.18;7.13;;;;;;;18.66;39.10;101236.94;4618396;31;20055;-59
2023/12/08 10:22:51;;;;;;;7.07;6.25;;;;;;;18.66;39.31;101231.56;4617380;31;20058;-58
2023/12/08 10:25:20;;;;;;;7.22;5.43;;;;;;;18.67;39.83;101235.97;4617072;31;20060;-58
2023/12/08 10:27:50;;;;;;;8.55;6.10;;;;;;;18.68;39.73;101231.47;4618819;31;20056;-51
2023/12/08 10:30:27;;;;;;;6.88;6.18;;;;;;;18.69;39.69;101225.13;4617751;31;20056;-50
2023/12/08 10:32:54;;;;;;;6.43;5.72;;;;;;;18.70;39.82;101219.69;4612984;31;20481;-53
2023/12/08 10:35:23;;;;;;;6.38;5.72;;;;;;;18.72;39.82;101219.56;4601620;31;20060;-52
2023/12/08 10:37:50;;;;;;;7.55;6.05;;;;;;;18.74;39.97;101217.63;4619587;31;20063;-54
2023/12/08 10:40:18;;;;;;;6.45;5.85;;;;;;;18.76;39.69;101204.97;4617462;31;20082;-54
2023/12/08 10:42:49;;;;;;;6.95;5.72;;;;;;;18.75;39.75;101201.38;4617070;31;20060;-51
2023/12/08 10:45:17;;;;;;;7.25;6.07;;;;;;;18.77;39.51;101199.47;4617289;31;20060;-52
2023/12/08 10:47:49;;;;;;;6.65;5.35;;;;;;;18.81;39.67;101204.59;4619726;31;20051;-49
2023/12/08 10:50:19;;;;;;;7.20;5.40;;;;;;;18.85;39.96;101193.50;4613618;31;20419;-54
2023/12/08 10:52:47;;;;;;;6.95;5.60;;;;;;;18.89;39.45;101188.75;4617530;31;20066;-58
2023/12/08 10:55:15;;;;;;;6.93;5.75;;;;;;;18.95;39.63;101190.94;4621787;31;20416;-56
2023/12/08 10:57:47;;;;;;;5.53;4.82;;;;;;;18.99;39.66;101192.41;4613531;31;20059;-59
2023/12/08 11:00:19;;;;;;;5.88;5.28;;;;;;;19.01;39.45;101185.97;4620238;31;20497;-55
2023/12/08 11:02:48;;;;;;;7.55;5.05;;;;;;;19.03;39.09;101186.66;4621004;31;20060;-55
2023/12/08 11:05:32;;;;;;;7.10;6.10;;;;;;;19.06;39.07;101188.28;4622882;31;20063;-57
2023/12/08 11:08:03;;;;;;;6.55;5.43;;;;;;;19.08;38.99;101189.03;4618803;31;20432;-61
2023/12/08 11:10:36;;;;;;;6.18;5.57;;;;;;;19.10;38.74;101181.69;4620473;31;20059;-59
2023/12/08 11:13:08;;;;;;;6.53;5.75;;;;;;;19.09;38.70;101182.66;4622489;31;20063;-56
2023/12/08 11:15:41;;;;;;;7.28;5.30;;;;;;;19.09;39.08;101173.78;4620714;31;20062;-51
2023/12/08 11:18:16;;;;;;;6.13;5.45;;;;;;;19.11;39.05;101174.47;4620130;31;20052;-49
2023/12/08 11:20:44;;;;;;;6.78;5.35;;;;;;;19.13;39.38;101175.22;4620896;31;20059;-47
2023/12/08 11:23:12;;;;;;;6.07;5.10;;;;;;;19.12;39.37;101166.34;4621458;31;20070;-48
2023/12/08 11:25:46;;;;;;;5.63;4.75;;;;;;;19.13;39.33;101168.03;4619880;31;20063;-52
2023/12/08 11:28:27;;;;;;;6.18;5.18;;;;;;;19.13;39.36;101159.97;4620131;31;20066;-48